Time;durP1;ratioP1;P1;durP2;ratioP2;P2;SDS_P1;SDS_P2;PMS_P1;PMS_P2;Temp;Humidity;BMP_temperature;BMP_pressure;BME280_temperature;BME280_humidity;BME280_pressure;Samples;Min_cycle;Max_cycle;Signal;HPM_P1;HPM_P2
2022/03/21 00:01:16;;;;;;;26.30;13.02;;;;;;;;;;5061751;28;20029;-60
2022/03/21 00:03:42;;;;;;;27.27;13.38;;;;;;;;;;5067038;28;20049;-60
2022/03/21 00:06:08;;;;;;;26.00;13.18;;;;;;;;;;5060975;28;20025;-60
2022/03/21 00:08:33;;;;;;;24.30;12.63;;;;;;;;;;5057267;28;20043;-62
2022/03/21 00:10:59;;;;;;;27.45;13.07;;;;;;;;;;5061330;28;20100;-60
2022/03/21 00:13:25;;;;;;;27.02;13.05;;;;;;;;;;5063491;28;20092;-61
2022/03/21 00:15:52;;;;;;;27.83;14.10;;;;;;;;;;5060408;28;20024;-61
2022/03/21 00:18:18;;;;;;;25.35;12.85;;;;;;;;;;5066927;28;20411;-61
2022/03/21 00:20:49;;;;;;;29.05;13.80;;;;;;;;;;5064339;28;20047;-60
2022/03/21 00:23:17;;;;;;;25.52;12.77;;;;;;;;;;5069748;28;20041;-61
2022/03/21 00:25:43;;;;;;;24.70;12.18;;;;;;;;;;5057080;28;20408;-62
2022/03/21 00:28:09;;;;;;;23.15;12.90;;;;;;;;;;5060326;28;20024;-61
2022/03/21 00:30:37;;;;;;;24.50;12.93;;;;;;;;;;5068663;28;20016;-61
2022/03/21 00:33:03;;;;;;;26.05;13.13;;;;;;;;;;5069288;28;20023;-60
2022/03/21 00:35:29;;;;;;;23.13;12.90;;;;;;;;;;5068745;28;20032;-61
2022/03/21 00:37:55;;;;;;;28.75;14.30;;;;;;;;;;5057826;28;20040;-59
2022/03/21 00:40:21;;;;;;;24.30;12.95;;;;;;;;;;5067875;28;20033;-60
2022/03/21 00:42:49;;;;;;;26.85;13.07;;;;;;;;;;5056088;28;20021;-60
2022/03/21 00:45:19;;;;;;;26.02;12.95;;;;;;;;;;5063059;28;20033;-60
2022/03/21 00:47:47;;;;;;;24.65;13.38;;;;;;;;;;5070911;28;20070;-61
2022/03/21 00:50:14;;;;;;;23.80;12.43;;;;;;;;;;5056327;28;20025;-61
2022/03/21 00:52:52;;;;;;;26.70;13.43;;;;;;;;;;5060057;28;20539;-60
2022/03/21 00:55:19;;;;;;;25.33;13.00;;;;;;;;;;5071658;28;20020;-60
2022/03/21 00:57:45;;;;;;;24.65;12.55;;;;;;;;;;5068352;28;20032;-60
2022/03/21 01:00:13;;;;;;;24.38;13.27;;;;;;;;;;5063773;28;20035;-60
2022/03/21 01:02:39;;;;;;;23.73;12.48;;;;;;;;;;5057872;28;20411;-60
2022/03/21 01:05:07;;;;;;;24.83;12.82;;;;;;;;;;5067634;28;20115;-60
2022/03/21 01:07:33;;;;;;;24.50;13.20;;;;;;;;;;5059644;28;20035;-61
2022/03/21 01:09:58;;;;;;;23.77;12.27;;;;;;;;;;5053012;28;20112;-60
2022/03/21 01:12:24;;;;;;;25.98;12.80;;;;;;;;;;5058098;28;20021;-61
2022/03/21 01:14:49;;;;;;;27.15;13.05;;;;;;;;;;5056119;28;20028;-60
2022/03/21 01:17:15;;;;;;;27.95;13.05;;;;;;;;;;5064090;28;20079;-60
2022/03/21 01:19:40;;;;;;;24.02;12.90;;;;;;;;;;5063271;28;20426;-60
2022/03/21 01:22:06;;;;;;;25.23;13.07;;;;;;;;;;5063337;28;20095;-60
2022/03/21 01:24:35;;;;;;;24.23;12.68;;;;;;;;;;5061953;28;20024;-60
2022/03/21 01:27:01;;;;;;;26.90;13.85;;;;;;;;;;5068482;28;20034;-59
2022/03/21 01:29:26;;;;;;;23.10;11.63;;;;;;;;;;5073774;28;20422;-59
2022/03/21 01:31:52;;;;;;;25.83;13.25;;;;;;;;;;5058370;28;20045;-60
2022/03/21 01:34:17;;;;;;;26.85;13.85;;;;;;;;;;5067305;28;20024;-60
2022/03/21 01:36:43;;;;;;;28.48;13.15;;;;;;;;;;5062910;28;20033;-60
2022/03/21 01:39:08;;;;;;;25.85;13.30;;;;;;;;;;5059055;28;20032;-60
2022/03/21 01:41:34;;;;;;;24.25;13.05;;;;;;;;;;5064502;28;20028;-59
2022/03/21 01:44:07;;;;;;;24.98;14.23;;;;;;;;;;5060048;28;20095;-62
2022/03/21 01:46:35;;;;;;;26.30;13.57;;;;;;;;;;5073583;28;20092;-60
2022/03/21 01:49:02;;;;;;;25.15;13.13;;;;;;;;;;5060084;28;20384;-60
2022/03/21 01:51:28;;;;;;;24.45;12.80;;;;;;;;;;5060769;28;20024;-60
2022/03/21 01:56:43;;;;;;;26.33;13.38;;;;;;;;;;5076360;28;20115;-60
2022/03/21 01:59:10;;;;;;;25.60;13.13;;;;;;;;;;5067475;28;20025;-60
2022/03/21 02:01:36;;;;;;;23.25;12.05;;;;;;;;;;5066294;28;20025;-60
2022/03/21 02:04:02;;;;;;;27.17;13.15;;;;;;;;;;5076298;28;20016;-60
2022/03/21 02:06:30;;;;;;;22.38;12.20;;;;;;;;;;5069411;28;20034;-59
2022/03/21 02:08:57;;;;;;;25.55;12.43;;;;;;;;;;5061822;28;20082;-60
2022/03/21 02:11:23;;;;;;;22.45;11.95;;;;;;;;;;5063939;28;20032;-60
2022/03/21 02:13:49;;;;;;;24.42;12.20;;;;;;;;;;5069500;28;20028;-60
2022/03/21 02:16:15;;;;;;;22.27;11.88;;;;;;;;;;5065129;28;20101;-60
2022/03/21 02:18:42;;;;;;;24.05;12.40;;;;;;;;;;5068647;28;20029;-60
2022/03/21 02:21:15;;;;;;;23.70;12.15;;;;;;;;;;5064542;28;20157;-61
2022/03/21 02:23:52;;;;;;;23.85;13.00;;;;;;;;;;5064045;28;20044;-59
2022/03/21 02:26:20;;;;;;;23.70;12.15;;;;;;;;;;5068995;28;20074;-60
2022/03/21 02:28:48;;;;;;;23.83;12.65;;;;;;;;;;5071682;28;20149;-60
2022/03/21 02:31:16;;;;;;;26.88;12.57;;;;;;;;;;5060993;28;20085;-60
2022/03/21 02:33:42;;;;;;;23.58;12.38;;;;;;;;;;5070621;28;20028;-61
2022/03/21 02:36:08;;;;;;;23.63;11.82;;;;;;;;;;5072282;28;20120;-60
2022/03/21 02:38:35;;;;;;;24.33;12.35;;;;;;;;;;5075113;28;20016;-60
2022/03/21 02:41:01;;;;;;;23.35;11.75;;;;;;;;;;5075479;28;20020;-60
2022/03/21 02:43:27;;;;;;;25.58;12.82;;;;;;;;;;5078287;28;20095;-60
2022/03/21 02:45:52;;;;;;;25.08;12.23;;;;;;;;;;5061928;28;20170;-60
2022/03/21 02:48:20;;;;;;;24.98;12.20;;;;;;;;;;5068616;28;20032;-60
2022/03/21 02:50:55;;;;;;;23.63;11.88;;;;;;;;;;5064980;28;20123;-59
2022/03/21 02:53:22;;;;;;;26.73;12.57;;;;;;;;;;5071279;28;20103;-59
2022/03/21 02:55:53;;;;;;;24.67;12.95;;;;;;;;;;5069154;28;20031;-59
2022/03/21 02:58:18;;;;;;;27.40;12.45;;;;;;;;;;5061922;28;20048;-59
2022/03/21 03:00:43;;;;;;;28.48;12.20;;;;;;;;;;5067344;28;20723;-59
2022/03/21 03:03:09;;;;;;;25.45;12.88;;;;;;;;;;5066888;28;20044;-60
2022/03/21 03:05:34;;;;;;;21.70;11.48;;;;;;;;;;5067239;28;20040;-60
2022/03/21 03:08:02;;;;;;;24.10;12.13;;;;;;;;;;5067452;28;20074;-60
2022/03/21 03:10:27;;;;;;;26.00;12.10;;;;;;;;;;5059531;28;20034;-60
2022/03/21 03:12:53;;;;;;;21.77;11.63;;;;;;;;;;5061007;28;20021;-60
2022/03/21 03:15:18;;;;;;;24.40;12.82;;;;;;;;;;5065983;28;20085;-60
2022/03/21 03:17:44;;;;;;;25.70;12.85;;;;;;;;;;5059172;28;20032;-60
2022/03/21 03:20:10;;;;;;;23.75;12.63;;;;;;;;;;5062505;28;20462;-59
2022/03/21 03:22:37;;;;;;;26.02;13.00;;;;;;;;;;5067660;28;20036;-60
2022/03/21 03:25:04;;;;;;;23.75;11.82;;;;;;;;;;5069600;28;20438;-60
2022/03/21 03:27:30;;;;;;;24.73;12.60;;;;;;;;;;5059714;28;20024;-61
2022/03/21 03:29:57;;;;;;;24.35;12.65;;;;;;;;;;5060416;28;20028;-60
2022/03/21 03:32:23;;;;;;;24.20;11.95;;;;;;;;;;5070570;28;20017;-61
2022/03/21 03:34:49;;;;;;;25.63;12.48;;;;;;;;;;5070551;28;20029;-59
2022/03/21 03:37:16;;;;;;;24.10;12.68;;;;;;;;;;5068833;28;20498;-60
2022/03/21 03:39:42;;;;;;;24.45;12.10;;;;;;;;;;5076555;28;20137;-59
2022/03/21 03:42:07;;;;;;;21.67;11.68;;;;;;;;;;5067686;28;20488;-60
2022/03/21 03:44:33;;;;;;;24.75;12.90;;;;;;;;;;5063589;28;20020;-60
2022/03/21 03:46:58;;;;;;;22.80;12.50;;;;;;;;;;5060508;28;20484;-60
2022/03/21 03:49:24;;;;;;;24.35;12.13;;;;;;;;;;5064052;28;20031;-60
2022/03/21 03:51:49;;;;;;;24.95;12.90;;;;;;;;;;5064746;28;20021;-58
2022/03/21 03:54:15;;;;;;;25.70;11.27;;;;;;;;;;5062797;28;20024;-59
2022/03/21 03:56:41;;;;;;;25.90;13.10;;;;;;;;;;5067176;28;20040;-61
2022/03/21 03:59:06;;;;;;;26.70;13.30;;;;;;;;;;5066023;28;20054;-60
2022/03/21 04:01:31;;;;;;;26.65;13.13;;;;;;;;;;5069896;28;20487;-60
2022/03/21 04:03:59;;;;;;;28.58;13.38;;;;;;;;;;5063224;28;20028;-59
2022/03/21 04:06:25;;;;;;;26.45;12.93;;;;;;;;;;5063076;28;20483;-60
2022/03/21 04:08:51;;;;;;;24.63;12.02;;;;;;;;;;5062702;28;20036;-60
2022/03/21 04:11:18;;;;;;;25.58;12.05;;;;;;;;;;5070245;28;20094;-60
2022/03/21 04:13:44;;;;;;;25.77;12.88;;;;;;;;;;5062931;28;20502;-60
2022/03/21 04:16:09;;;;;;;23.20;11.82;;;;;;;;;;5057451;28;20024;-59
2022/03/21 04:18:36;;;;;;;26.95;12.82;;;;;;;;;;5062327;28;20121;-61
2022/03/21 04:21:03;;;;;;;25.85;12.77;;;;;;;;;;5069382;28;20127;-60
2022/03/21 04:23:28;;;;;;;25.83;12.63;;;;;;;;;;5063361;28;20342;-60
2022/03/21 04:25:54;;;;;;;25.42;12.75;;;;;;;;;;5061961;28;20109;-61
2022/03/21 04:28:20;;;;;;;25.90;12.75;;;;;;;;;;5065814;28;20485;-60
2022/03/21 04:30:45;;;;;;;26.55;13.00;;;;;;;;;;5063482;28;20400;-59
2022/03/21 04:33:14;;;;;;;25.83;13.50;;;;;;;;;;5059118;28;20052;-61
2022/03/21 04:35:41;;;;;;;27.63;13.00;;;;;;;;;;5068442;28;20032;-60
2022/03/21 04:38:13;;;;;;;25.02;13.32;;;;;;;;;;5058995;28;20047;-60
2022/03/21 04:40:44;;;;;;;25.70;13.07;;;;;;;;;;5072962;28;20036;-60
2022/03/21 04:43:10;;;;;;;27.45;13.23;;;;;;;;;;5054780;28;20028;-59
2022/03/21 04:45:36;;;;;;;27.85;12.63;;;;;;;;;;5052103;28;20449;-59
2022/03/21 04:48:02;;;;;;;25.98;12.63;;;;;;;;;;5055807;28;20032;-60
2022/03/21 04:50:27;;;;;;;25.05;12.45;;;;;;;;;;5049496;28;20029;-60
2022/03/21 04:52:52;;;;;;;24.95;12.05;;;;;;;;;;5054086;28;20031;-60
2022/03/21 04:55:18;;;;;;;22.90;12.10;;;;;;;;;;5057419;28;20458;-58
2022/03/21 04:57:43;;;;;;;33.72;14.05;;;;;;;;;;5063034;28;20585;-60
2022/03/21 05:00:09;;;;;;;28.15;13.65;;;;;;;;;;5064306;28;20024;-59
2022/03/21 05:02:35;;;;;;;26.73;12.93;;;;;;;;;;5072354;28;20055;-60
2022/03/21 05:05:00;;;;;;;28.13;13.30;;;;;;;;;;5064982;28;20071;-59
2022/03/21 05:07:26;;;;;;;24.80;12.60;;;;;;;;;;5060919;28;20016;-59
2022/03/21 05:09:52;;;;;;;28.08;12.55;;;;;;;;;;5069138;28;20040;-59
2022/03/21 05:12:17;;;;;;;29.50;13.85;;;;;;;;;;5067775;28;20475;-60
2022/03/21 05:14:43;;;;;;;30.58;13.50;;;;;;;;;;5067048;28;20039;-60
2022/03/21 05:17:10;;;;;;;25.92;13.73;;;;;;;;;;5060585;28;20025;-59
2022/03/21 05:19:36;;;;;;;26.92;13.07;;;;;;;;;;5071470;28;20028;-59
2022/03/21 05:22:05;;;;;;;30.60;13.05;;;;;;;;;;5071313;28;20056;-59
2022/03/21 05:32:44;;;;;;;25.77;12.73;;;;;;;;;;5068192;28;20027;-59
2022/03/21 05:37:53;;;;;;;28.02;13.02;;;;;;;;;;5063980;28;20168;-60
2022/03/21 05:40:31;;;;;;;26.30;13.00;;;;;;;;;;5065088;28;20183;-61
2022/03/21 05:42:57;;;;;;;28.30;13.23;;;;;;;;;;5068606;28;20065;-60
2022/03/21 05:45:23;;;;;;;26.30;13.10;;;;;;;;;;5059334;28;20056;-61
2022/03/21 05:50:37;;;;;;;22.33;12.10;;;;;;;;;;5071735;28;20058;-61
2022/03/21 05:53:04;;;;;;;25.10;12.05;;;;;;;;;;5068750;28;20511;-59
2022/03/21 05:55:30;;;;;;;24.33;10.95;;;;;;;;;;5064985;28;20024;-59
2022/03/21 05:57:57;;;;;;;24.48;12.13;;;;;;;;;;5073579;28;20032;-59
2022/03/21 06:00:23;;;;;;;26.10;11.73;;;;;;;;;;5068017;28;20458;-61
2022/03/21 06:02:50;;;;;;;24.70;11.80;;;;;;;;;;5073666;28;20043;-59
2022/03/21 06:05:15;;;;;;;23.63;11.93;;;;;;;;;;5072370;28;20024;-60
2022/03/21 06:07:41;;;;;;;23.85;11.35;;;;;;;;;;5063323;28;20115;-59
2022/03/21 06:10:07;;;;;;;21.52;10.75;;;;;;;;;;5062479;28;20043;-60
2022/03/21 06:12:32;;;;;;;22.02;12.15;;;;;;;;;;5070172;28;20476;-62
2022/03/21 06:14:59;;;;;;;23.23;10.77;;;;;;;;;;5061757;28;20032;-61
2022/03/21 06:17:25;;;;;;;22.67;11.65;;;;;;;;;;5063575;28;20377;-61
2022/03/21 06:19:50;;;;;;;27.88;12.07;;;;;;;;;;5066618;28;20040;-61
2022/03/21 06:22:15;;;;;;;24.75;11.77;;;;;;;;;;5069684;28;20071;-62
2022/03/21 06:24:41;;;;;;;23.52;12.23;;;;;;;;;;5068213;28;20418;-61
2022/03/21 06:27:06;;;;;;;24.15;11.63;;;;;;;;;;5076033;28;20024;-62
2022/03/21 06:29:32;;;;;;;24.02;11.98;;;;;;;;;;5068533;28;20037;-62
2022/03/21 06:31:58;;;;;;;21.80;10.88;;;;;;;;;;5067412;28;20025;-61
2022/03/21 06:34:23;;;;;;;23.42;11.20;;;;;;;;;;5075100;28;20024;-62
2022/03/21 06:36:49;;;;;;;27.13;12.88;;;;;;;;;;5070266;28;20107;-61
2022/03/21 06:39:14;;;;;;;25.60;12.32;;;;;;;;;;5069936;28;20029;-62
2022/03/21 06:41:44;;;;;;;30.08;13.90;;;;;;;;;;5067581;28;20037;-61
2022/03/21 06:44:10;;;;;;;40.38;18.70;;;;;;;;;;5066248;28;20029;-62
2022/03/21 06:46:36;;;;;;;32.80;17.98;;;;;;;;;;5061007;28;20083;-61
2022/03/21 06:49:02;;;;;;;36.92;18.05;;;;;;;;;;5058524;28;20098;-61
2022/03/21 06:51:28;;;;;;;45.78;18.30;;;;;;;;;;5071744;28;20471;-61
2022/03/21 06:53:53;;;;;;;40.55;17.20;;;;;;;;;;5066148;28;20536;-61
2022/03/21 06:56:18;;;;;;;35.08;16.92;;;;;;;;;;5058802;28;20036;-61
2022/03/21 06:58:44;;;;;;;32.08;15.88;;;;;;;;;;5061652;28;20047;-61
2022/03/21 07:01:09;;;;;;;35.22;16.02;;;;;;;;;;5060846;28;20059;-60
2022/03/21 07:03:35;;;;;;;32.05;12.68;;;;;;;;;;5061962;28;20279;-61
2022/03/21 07:06:00;;;;;;;31.92;16.65;;;;;;;;;;5065833;28;20493;-62
2022/03/21 07:08:26;;;;;;;32.42;15.75;;;;;;;;;;5060153;28;20408;-61
2022/03/21 07:10:52;;;;;;;33.13;16.60;;;;;;;;;;5065784;28;20029;-61
2022/03/21 07:13:17;;;;;;;33.08;15.30;;;;;;;;;;5064431;28;20431;-61
2022/03/21 07:15:43;;;;;;;30.30;16.23;;;;;;;;;;5058581;28;20032;-61
2022/03/21 07:18:09;;;;;;;30.00;15.45;;;;;;;;;;5067876;28;20069;-61
2022/03/21 07:20:35;;;;;;;31.45;15.95;;;;;;;;;;5065275;28;20032;-61
2022/03/21 07:23:01;;;;;;;32.20;15.93;;;;;;;;;;5064556;28;20029;-61
2022/03/21 07:25:27;;;;;;;29.58;14.75;;;;;;;;;;5065032;28;20024;-61
2022/03/21 07:27:53;;;;;;;33.30;17.73;;;;;;;;;;5064541;28;20395;-61
2022/03/21 07:30:19;;;;;;;33.58;16.90;;;;;;;;;;5057594;28;20053;-61
2022/03/21 07:32:45;;;;;;;29.55;15.50;;;;;;;;;;5052766;28;20059;-60
2022/03/21 07:35:12;;;;;;;28.55;14.35;;;;;;;;;;5060283;28;20043;-61
2022/03/21 07:37:42;;;;;;;32.10;15.45;;;;;;;;;;5062168;28;20127;-60
2022/03/21 07:40:10;;;;;;;;;;;;;;;;;;5058558;28;20052;-61
2022/03/21 07:42:39;;;;;;;25.70;14.68;;;;;;;;;;5055234;28;20256;-61
2022/03/21 07:47:51;;;;;;;28.98;14.20;;;;;;;;;;5066517;28;20503;-61
2022/03/21 07:50:17;;;;;;;28.15;13.80;;;;;;;;;;5055619;28;20117;-61
2022/03/21 07:52:42;;;;;;;29.85;15.10;;;;;;;;;;5058004;28;20029;-60
2022/03/21 07:55:08;;;;;;;26.13;14.07;;;;;;;;;;5062694;28;20071;-61
2022/03/21 07:57:34;;;;;;;30.25;15.40;;;;;;;;;;5055135;28;20024;-61
2022/03/21 07:59:59;;;;;;;29.20;14.55;;;;;;;;;;5057716;28;20020;-61
2022/03/21 08:02:26;;;;;;;28.88;14.68;;;;;;;;;;5054620;28;20025;-61
2022/03/21 08:04:52;;;;;;;26.83;14.80;;;;;;;;;;5062255;28;20028;-61
2022/03/21 08:07:17;;;;;;;29.27;14.15;;;;;;;;;;5064314;28;20054;-61
2022/03/21 08:09:43;;;;;;;27.83;14.45;;;;;;;;;;5062350;28;20147;-61
2022/03/21 08:12:10;;;;;;;30.55;15.30;;;;;;;;;;5059564;28;20032;-61
2022/03/21 08:14:36;;;;;;;28.02;14.73;;;;;;;;;;5064436;28;20075;-61
2022/03/21 08:17:02;;;;;;;28.30;14.85;;;;;;;;;;5066212;28;20055;-61
2022/03/21 08:19:29;;;;;;;26.40;13.95;;;;;;;;;;5060247;28;20028;-61
2022/03/21 08:21:55;;;;;;;29.80;15.32;;;;;;;;;;5065824;28;20024;-62
2022/03/21 08:24:22;;;;;;;30.73;15.07;;;;;;;;;;5060172;28;20032;-61
2022/03/21 08:26:49;;;;;;;31.58;15.85;;;;;;;;;;5060131;28;20030;-61
2022/03/21 08:29:15;;;;;;;29.00;15.10;;;;;;;;;;5054749;28;20028;-61
2022/03/21 08:31:41;;;;;;;33.00;15.85;;;;;;;;;;5055730;28;20032;-61
2022/03/21 08:34:06;;;;;;;28.80;14.77;;;;;;;;;;5058139;28;20464;-61
2022/03/21 08:36:32;;;;;;;31.23;16.45;;;;;;;;;;5061149;28;20052;-61
2022/03/21 08:38:58;;;;;;;29.67;15.30;;;;;;;;;;5060757;28;20032;-61
2022/03/21 08:41:24;;;;;;;31.23;15.27;;;;;;;;;;5056962;28;20028;-61
2022/03/21 08:43:49;;;;;;;29.33;15.65;;;;;;;;;;5060344;28;20032;-61
2022/03/21 08:46:15;;;;;;;31.98;16.05;;;;;;;;;;5056173;28;20036;-61
2022/03/21 08:51:25;;;;;;;30.17;16.08;;;;;;;;;;5057488;28;20109;-61
2022/03/21 08:53:51;;;;;;;28.80;15.75;;;;;;;;;;5058837;28;20625;-61
2022/03/21 08:56:17;;;;;;;37.70;18.05;;;;;;;;;;5058982;28;20045;-62
2022/03/21 08:58:42;;;;;;;32.85;16.45;;;;;;;;;;5065715;28;20178;-61
2022/03/21 09:01:08;;;;;;;32.28;17.05;;;;;;;;;;5059155;28;20064;-62
2022/03/21 09:03:34;;;;;;;30.55;16.65;;;;;;;;;;5062935;28;20029;-61
2022/03/21 09:05:59;;;;;;;35.92;17.67;;;;;;;;;;5064787;28;20039;-62
2022/03/21 09:08:25;;;;;;;28.40;15.85;;;;;;;;;;5063305;28;20031;-61
2022/03/21 09:10:50;;;;;;;30.63;17.15;;;;;;;;;;5063408;28;20028;-61
2022/03/21 09:13:16;;;;;;;32.72;16.35;;;;;;;;;;5060805;28;20150;-61
2022/03/21 09:15:43;;;;;;;29.95;16.88;;;;;;;;;;5066240;28;20033;-62
2022/03/21 09:18:08;;;;;;;30.60;16.48;;;;;;;;;;5063729;28;20192;-62
2022/03/21 09:20:34;;;;;;;32.13;16.45;;;;;;;;;;5056505;28;20574;-62
2022/03/21 09:22:59;;;;;;;33.10;17.73;;;;;;;;;;5057564;28;20310;-62
2022/03/21 09:25:25;;;;;;;31.17;17.52;;;;;;;;;;5063994;28;20024;-62
2022/03/21 09:27:50;;;;;;;30.73;17.50;;;;;;;;;;5058808;28;20031;-62
2022/03/21 09:30:16;;;;;;;38.20;18.42;;;;;;;;;;5058361;28;20146;-62
2022/03/21 09:32:43;;;;;;;30.20;16.35;;;;;;;;;;5055058;28;20123;-62
2022/03/21 09:35:08;;;;;;;30.17;17.52;;;;;;;;;;5060685;28;20032;-62
2022/03/21 09:37:34;;;;;;;32.42;17.67;;;;;;;;;;5055060;28;20024;-62
2022/03/21 09:40:00;;;;;;;31.17;16.08;;;;;;;;;;5052261;28;20495;-61
2022/03/21 09:42:26;;;;;;;32.65;17.42;;;;;;;;;;5049785;28;20029;-61
2022/03/21 09:44:55;;;;;;;31.50;17.25;;;;;;;;;;5055405;28;20099;-62
2022/03/21 09:50:12;;;;;;;28.63;16.60;;;;;;;;;;5063675;28;20043;-62
2022/03/21 09:52:38;;;;;;;31.10;17.40;;;;;;;;;;5063788;28;20111;-62
2022/03/21 09:55:06;;;;;;;33.03;17.67;;;;;;;;;;5060646;28;20393;-62
2022/03/21 09:57:31;;;;;;;34.10;17.98;;;;;;;;;;5067608;28;20278;-62
2022/03/21 09:59:58;;;;;;;33.60;17.95;;;;;;;;;;5053826;28;20650;-62
2022/03/21 10:02:24;;;;;;;32.35;17.40;;;;;;;;;;5061609;28;20086;-63
2022/03/21 10:04:50;;;;;;;33.88;19.23;;;;;;;;;;5065318;28;20028;-62
2022/03/21 10:07:27;;;;;;;34.20;18.13;;;;;;;;;;5057917;28;20472;-62
2022/03/21 10:10:09;;;;;;;39.22;19.25;;;;;;;;;;5056547;28;20032;-62
2022/03/21 10:12:35;;;;;;;34.63;18.42;;;;;;;;;;5054006;28;20029;-63
2022/03/21 10:15:04;;;;;;;37.35;18.67;;;;;;;;;;5059230;28;20439;-61
2022/03/21 10:17:30;;;;;;;32.92;18.40;;;;;;;;;;5056915;28;20060;-62
2022/03/21 10:19:55;;;;;;;35.22;18.90;;;;;;;;;;5061146;28;20060;-62
2022/03/21 10:22:33;;;;;;;40.22;20.48;;;;;;;;;;5051117;28;20036;-62
2022/03/21 10:25:04;;;;;;;37.50;18.63;;;;;;;;;;5055317;28;20024;-62
2022/03/21 10:27:33;;;;;;;37.13;19.90;;;;;;;;;;5054732;28;20033;-62
2022/03/21 10:30:06;;;;;;;35.53;18.43;;;;;;;;;;5058157;28;20025;-62
2022/03/21 10:32:43;;;;;;;35.88;18.67;;;;;;;;;;5061965;28;20577;-63
2022/03/21 10:35:22;;;;;;;36.35;18.70;;;;;;;;;;5059985;28;20032;-62
2022/03/21 10:37:56;;;;;;;44.33;22.42;;;;;;;;;;5056318;28;20028;-62
2022/03/21 10:40:25;;;;;;;42.78;22.13;;;;;;;;;;5057372;28;20495;-63
2022/03/21 10:43:05;;;;;;;34.38;20.42;;;;;;;;;;5054143;28;20046;-63
2022/03/21 10:45:36;;;;;;;36.20;19.55;;;;;;;;;;5053387;28;20090;-62
2022/03/21 10:48:07;;;;;;;35.30;19.90;;;;;;;;;;5053084;28;20033;-63
2022/03/21 10:50:35;;;;;;;37.20;20.38;;;;;;;;;;5053187;28;20115;-62
2022/03/21 10:53:13;;;;;;;38.97;18.80;;;;;;;;;;5057373;28;20482;-61
2022/03/21 10:55:44;;;;;;;41.53;19.88;;;;;;;;;;5058053;28;20496;-61
2022/03/21 10:58:11;;;;;;;33.38;19.00;;;;;;;;;;5059921;28;20030;-61
2022/03/21 11:00:37;;;;;;;33.90;19.23;;;;;;;;;;5059773;28;20590;-60
2022/03/21 11:03:09;;;;;;;40.58;19.70;;;;;;;;;;5052432;28;20123;-62
2022/03/21 11:05:39;;;;;;;36.70;20.33;;;;;;;;;;5055285;28;20117;-62
2022/03/21 11:08:07;;;;;;;34.88;18.55;;;;;;;;;;5055567;28;20012;-62
2022/03/21 11:10:33;;;;;;;38.22;19.85;;;;;;;;;;5056559;28;20036;-62
2022/03/21 11:13:01;;;;;;;35.40;20.40;;;;;;;;;;5055335;28;20023;-62
2022/03/21 11:15:28;;;;;;;39.58;20.83;;;;;;;;;;5056374;28;20388;-62
2022/03/21 11:17:55;;;;;;;42.30;20.38;;;;;;;;;;5060271;28;20098;-61
2022/03/21 11:20:21;;;;;;;38.03;20.27;;;;;;;;;;5059183;28;20111;-62
2022/03/21 11:22:47;;;;;;;33.85;19.40;;;;;;;;;;5051015;28;20028;-62
2022/03/21 11:25:16;;;;;;;34.22;19.27;;;;;;;;;;5057218;28;20056;-62
2022/03/21 11:28:01;;;;;;;36.08;20.33;;;;;;;;;;5055355;28;20603;-62
2022/03/21 11:30:36;;;;;;;37.28;19.95;;;;;;;;;;5059544;28;20040;-62
2022/03/21 11:33:20;;;;;;;34.55;19.67;;;;;;;;;;5053779;28;20185;-62
2022/03/21 11:36:00;;;;;;;38.75;20.92;;;;;;;;;;5056133;28;20059;-63
2022/03/21 11:38:30;;;;;;;35.45;19.33;;;;;;;;;;5055721;28;20052;-62
2022/03/21 11:41:12;;;;;;;34.50;21.10;;;;;;;;;;5055151;28;20078;-62
2022/03/21 11:43:39;;;;;;;35.35;21.25;;;;;;;;;;5054160;28;20051;-62
2022/03/21 11:46:20;;;;;;;38.88;21.20;;;;;;;;;;5058909;28;20047;-62
2022/03/21 11:48:47;;;;;;;38.75;21.05;;;;;;;;;;5060534;28;20035;-63
2022/03/21 11:51:19;;;;;;;37.05;20.73;;;;;;;;;;5067364;28;20039;-62
2022/03/21 11:53:48;;;;;;;39.83;22.33;;;;;;;;;;5063130;28;20407;-63
2022/03/21 11:56:43;;;;;;;44.17;24.15;;;;;;;;;;5056350;28;20024;-62
2022/03/21 11:59:09;;;;;;;37.30;20.75;;;;;;;;;;5063962;28;20040;-62
2022/03/21 12:01:34;;;;;;;36.20;20.75;;;;;;;;;;5061563;28;20024;-63
2022/03/21 12:04:24;;;;;;;37.85;20.83;;;;;;;;;;5064853;28;20024;-62
2022/03/21 12:07:08;;;;;;;36.80;20.17;;;;;;;;;;5055908;28;20020;-62
2022/03/21 12:09:44;;;;;;;37.47;20.95;;;;;;;;;;5061642;28;20089;-62
2022/03/21 12:12:11;;;;;;;37.67;21.17;;;;;;;;;;5060511;28;20031;-62
2022/03/21 12:14:40;;;;;;;38.08;21.25;;;;;;;;;;5058701;28;20103;-62
2022/03/21 12:17:05;;;;;;;;;;;;;;;;;;5056497;28;20028;-62
2022/03/21 12:19:54;;;;;;;41.35;20.05;;;;;;;;;;5054936;28;19924;-61
2022/03/21 12:22:28;;;;;;;42.15;19.65;;;;;;;;;;5053912;28;20029;-61
2022/03/21 12:25:15;;;;;;;34.40;18.15;;;;;;;;;;5054307;28;20561;-61
2022/03/21 12:27:57;;;;;;;39.70;19.67;;;;;;;;;;5052743;28;20024;-62
2022/03/21 12:30:23;;;;;;;32.13;18.38;;;;;;;;;;5056477;28;20021;-62
2022/03/21 12:33:04;;;;;;;33.40;17.88;;;;;;;;;;5056163;28;20473;-62
2022/03/21 12:35:32;;;;;;;31.73;18.35;;;;;;;;;;5052399;28;20033;-63
2022/03/21 12:38:14;;;;;;;35.88;18.95;;;;;;;;;;5053520;28;20397;-62
2022/03/21 12:40:51;;;;;;;36.40;18.42;;;;;;;;;;5051019;28;20023;-62
2022/03/21 12:43:23;;;;;;;33.20;18.42;;;;;;;;;;5054083;28;20040;-62
2022/03/21 12:45:54;;;;;;;33.17;17.33;;;;;;;;;;5061067;28;20028;-62
2022/03/21 12:48:19;;;;;;;33.22;17.80;;;;;;;;;;5061768;28;20028;-62
2022/03/21 12:50:49;;;;;;;34.10;17.50;;;;;;;;;;5057254;28;20041;-62
2022/03/21 12:53:18;;;;;;;36.30;18.95;;;;;;;;;;5056386;28;20017;-62
2022/03/21 12:55:44;;;;;;;;;;;;;;;;;;5053663;28;20086;-63
2022/03/21 12:58:12;;;;;;;36.10;18.45;;;;;;;;;;5055891;28;19926;-62
2022/03/21 13:00:40;;;;;;;35.92;18.08;;;;;;;;;;5063139;28;20115;-62
2022/03/21 13:03:10;;;;;;;35.27;18.37;;;;;;;;;;5057833;28;20031;-62
2022/03/21 13:11:24;;;;;;;34.50;17.50;;;;;;;;;;5052160;28;20121;-62
2022/03/21 13:13:55;;;;;;;34.78;16.73;;;;;;;;;;5055975;28;20029;-62
2022/03/21 13:16:22;;;;;;;34.15;16.48;;;;;;;;;;5059096;28;20033;-62
2022/03/21 13:18:50;;;;;;;34.05;17.48;;;;;;;;;;5058323;28;20020;-62
2022/03/21 13:21:18;;;;;;;33.53;15.60;;;;;;;;;;5060246;28;20021;-63
2022/03/21 13:23:44;;;;;;;32.67;15.75;;;;;;;;;;5054028;28;20111;-62
2022/03/21 13:26:14;;;;;;;32.90;17.20;;;;;;;;;;5060466;28;20029;-62
2022/03/21 13:28:40;;;;;;;35.40;15.70;;;;;;;;;;5050645;28;20029;-62
2022/03/21 13:31:12;;;;;;;34.20;15.10;;;;;;;;;;5048807;28;20036;-61
2022/03/21 13:33:40;;;;;;;34.85;15.05;;;;;;;;;;5055346;28;20124;-62
2022/03/21 13:36:14;;;;;;;30.88;15.18;;;;;;;;;;5057271;28;20139;-61
2022/03/21 13:38:39;;;;;;;36.28;16.38;;;;;;;;;;5061363;28;20024;-61
2022/03/21 13:41:18;;;;;;;32.05;15.32;;;;;;;;;;5057058;28;20054;-61
2022/03/21 13:44:00;;;;;;;;;;;;;;;;;;5060561;28;20043;-62
2022/03/21 13:46:25;;;;;;;28.85;15.30;;;;;;;;;;5056486;28;20394;-61
2022/03/21 13:48:51;;;;;;;32.72;14.95;;;;;;;;;;5055987;28;20029;-62
2022/03/21 13:51:18;;;;;;;30.42;14.60;;;;;;;;;;5069249;28;20461;-62
2022/03/21 13:53:44;;;;;;;29.98;16.52;;;;;;;;;;5063602;28;20048;-62
2022/03/21 13:56:13;;;;;;;32.22;15.40;;;;;;;;;;5064614;28;20025;-62
2022/03/21 13:58:38;;;;;;;34.53;15.18;;;;;;;;;;5061253;28;20036;-62
2022/03/21 14:01:21;;;;;;;35.97;14.55;;;;;;;;;;5056790;28;20086;-62
2022/03/21 14:03:50;;;;;;;35.85;14.93;;;;;;;;;;5064131;28;20029;-62
2022/03/21 14:06:15;;;;;;;29.30;13.93;;;;;;;;;;5061400;28;20415;-62
2022/03/21 14:08:41;;;;;;;26.90;14.68;;;;;;;;;;5066109;28;20032;-62
2022/03/21 14:11:15;;;;;;;26.52;14.13;;;;;;;;;;5062097;28;20021;-62
2022/03/21 14:13:41;;;;;;;27.27;13.48;;;;;;;;;;5068108;28;20453;-62
2022/03/21 14:16:07;;;;;;;29.83;14.50;;;;;;;;;;5062502;28;20030;-62
2022/03/21 14:18:37;;;;;;;31.00;14.13;;;;;;;;;;5064903;28;20028;-63
2022/03/21 14:21:08;;;;;;;28.52;14.50;;;;;;;;;;5064742;28;20028;-62
2022/03/21 14:23:35;;;;;;;29.05;14.38;;;;;;;;;;5062599;28;20460;-63
2022/03/21 14:28:46;;;;;;;32.55;14.88;;;;;;;;;;5060236;28;20062;-62
2022/03/21 14:31:12;;;;;;;33.72;15.80;;;;;;;;;;5060590;28;20096;-62
2022/03/21 14:33:38;;;;;;;33.92;15.18;;;;;;;;;;5059178;28;20255;-62
2022/03/21 14:36:06;;;;;;;31.90;14.40;;;;;;;;;;5052916;28;20039;-61
2022/03/21 14:38:33;;;;;;;26.75;14.07;;;;;;;;;;5053332;28;20283;-61
2022/03/21 14:40:58;;;;;;;27.48;14.32;;;;;;;;;;5061752;28;20104;-63
2022/03/21 14:43:25;;;;;;;25.00;14.40;;;;;;;;;;5061143;28;20119;-61
2022/03/21 14:45:53;;;;;;;36.05;15.70;;;;;;;;;;5060072;28;20029;-61
2022/03/21 14:48:19;;;;;;;31.58;14.15;;;;;;;;;;5066365;28;20526;-61
2022/03/21 14:50:44;;;;;;;29.70;15.40;;;;;;;;;;5057116;28;20028;-61
2022/03/21 14:53:09;;;;;;;28.05;14.77;;;;;;;;;;5051867;28;20024;-62
2022/03/21 14:55:35;;;;;;;27.05;14.45;;;;;;;;;;5065412;28;20044;-62